Latest Weather Observations for Nullarbor

IDS60801

Issued at 3:35 pm CDT Monday 24 November 2014 (issued every 30 minutes, with the page automatically refreshed every 10 minutes)

About weather observations | Map of weather stations | Latest weather observations for SA | Other Formats
Station Details ID: 018106 Name: NULLARBOR Lat: -31.45 Lon: 130.90 Height: 64.0 m
Data from the previous 72 hours. | See also: Recent months at Nullarbor
Date/Time
CDT
Temp
°C
App
Temp
°C
Dew
Point
Rel
Hum
%
Delta-T
°C
Wind Press
QNH
hPa
Press
MSL
hPa
Rain
since 9 am
mm
Dir
 
Spd
km/h
Gust
km/h
Spd
kts
Gust
kts
24/03:30pm 20.5 13.7 6.8 41 6.9 S 32 39 17 21 1020.6 1020.5 0.0
24/03:00pm 21.2 16.0 7.4 41 7.1 S 24 32 13 17 1020.6 1020.5 0.0
24/02:30pm 20.5 14.9 7.2 42 6.8 S 26 41 14 22 1020.7 1020.6 0.0
24/02:05pm 21.0 15.2 8.0 43 6.8 SSE 28 46 15 25 1020.8 1020.7 0.0
24/02:00pm 20.0 14.5 7.7 45 6.3 SSW 26 37 14 20 1021.0 1020.9 0.0
24/01:30pm 20.6 14.9 8.3 45 6.4 SSW 28 39 15 21 1021.1 1021.0 0.0
24/01:00pm 20.4 14.8 8.7 47 6.2 S 28 41 15 22 1021.2 1021.1 0.0
24/12:30pm 21.1 16.1 9.7 48 6.1 SSW 26 41 14 22 1021.1 1021.0 0.0
24/12:00pm 19.9 15.0 9.8 52 5.4 S 26 41 14 22 1020.9 1020.8 0.0
24/11:30am 21.1 15.7 9.4 47 6.2 SSW 28 39 15 21 1020.8 1020.7 0.0
24/11:00am 19.9 14.8 10.6 55 5.1 SSW 28 35 15 19 1020.5 1020.4 0.0
24/10:30am 19.6 15.1 10.0 54 5.1 SSW 24 50 13 27 1020.3 1020.2 0.0
24/10:00am 19.7 14.3 9.6 52 5.4 SSW 28 37 15 20 1020.2 1020.1 0.0
24/09:30am 19.3 14.6 10.8 58 4.6 S 26 33 14 18 1019.8 1019.7 0.0
24/09:00am 18.4 13.3 10.7 61 4.1 S 28 35 15 19 1019.5 1019.4 0.0
24/08:30am 18.3 13.3 11.1 63 3.9 S 28 37 15 20 1018.9 1018.8 0.0
24/08:00am 17.7 13.2 11.5 67 3.4 S 26 33 14 18 1018.6 1018.5 0.0
24/07:30am 16.7 13.6 12.3 75 2.4 SSW 20 28 11 15 1018.2 1018.1 0.0
24/07:00am 15.7 13.1 12.1 79 2.0 SSW 17 20 9 11 1017.7 1017.6 0.0
24/06:30am 15.8 13.3 12.4 80 1.9 SSW 17 22 9 12 1017.4 1017.3 0.0
24/06:00am 16.4 13.4 12.4 77 2.2 SSW 20 28 11 15 1017.1 1016.9 0.0
24/05:30am 17.2 13.5 12.7 75 2.5 S 24 32 13 17 1016.9 1016.7 0.0
24/05:00am 17.3 13.7 13.0 76 2.4 S 24 32 13 17 1016.6 1016.4 0.0
24/04:30am 17.5 14.5 13.6 78 2.2 S 22 30 12 16 1016.5 1016.3 0.0
24/04:00am 17.3 13.5 13.6 79 2.1 SSW 26 35 14 19 1016.1 1015.9 0.0
24/03:30am 17.6 13.5 13.9 79 2.1 S 28 39 15 21 1015.8 1015.6 0.0
24/03:00am 17.5 13.5 14.2 81 1.9 S 28 39 15 21 1015.6 1015.4 0.0
24/02:30am 17.9 13.1 14.0 78 2.2 S 32 41 17 22 1015.5 1015.3 0.0
24/02:00am 17.9 13.1 14.0 78 2.2 S 32 39 17 21 1015.4 1015.2 0.0
24/01:30am 17.9 13.3 14.6 81 1.9 S 32 43 17 23 1015.3 1015.1 0.0
24/01:00am 17.7 14.4 15.0 84 1.6 S 26 33 14 18 1015.0 1014.8 0.0
24/12:30am 17.9 13.3 15.2 84 1.6 S 33 43 18 23 1014.3 1014.1 0.0
24/12:00am 18.0 14.0 15.1 83 1.7 SSW 30 39 16 21 1014.2 1014.0 0.0
 
Date/Time
CDT
Temp
°C
App
Temp
°C
Dew
Point
Rel
Hum
%
Delta-T
°C
Wind Press
QNH
hPa
Press
MSL
hPa
Rain
since 9 am
mm
Dir
 
Spd
km/h
Gust
km/h
Spd
kts
Gust
kts
23/11:30pm 18.1 14.7 15.7 86 1.4 SSW 28 37 15 20 1013.8 1013.6 0.0
23/11:00pm 18.2 15.1 15.6 85 1.5 SSW 26 33 14 18 1013.3 1013.1 0.0
23/10:30pm 18.4 14.9 15.6 84 1.7 SSW 28 35 15 19 1012.8 1012.6 0.0
23/10:00pm 18.5 15.3 15.4 82 1.8 SSW 26 35 14 19 1011.9 1011.7 0.0
23/09:30pm 18.6 15.9 15.5 82 1.8 S 24 32 13 17 1011.3 1011.1 0.0
23/09:00pm 18.8 16.0 15.3 80 2.1 S 24 32 13 17 1010.5 1010.3 0.0
23/08:30pm 19.2 15.6 15.3 78 2.3 SSE 28 39 15 21 1009.8 1009.6 0.0
23/08:00pm 19.9 15.4 14.9 73 2.9 SSE 32 41 17 22 1009.1 1008.9 0.0
23/07:30pm 21.0 16.4 14.6 67 3.8 S 32 39 17 21 1008.5 1008.3 0.0
23/07:00pm 21.8 16.9 14.2 62 4.4 SSE 33 43 18 23 1007.8 1007.6 0.0
23/06:30pm 22.4 16.9 13.7 58 5.1 SSE 35 44 19 24 1007.4 1007.2 0.0
23/06:00pm 22.8 17.4 13.8 57 5.3 SSE 35 46 19 25 1007.2 1007.0 0.0
23/05:30pm 24.2 18.4 12.8 49 6.6 SSE 35 44 19 24 1006.7 1006.6 0.0
23/05:00pm 24.2 18.2 13.4 51 6.3 SSE 37 44 20 24 1006.7 1006.6 0.0
23/04:30pm 25.1 18.6 13.0 47 7.1 SSE 39 46 21 25 1006.8 1006.7 0.0
23/04:00pm 25.6 19.8 12.8 45 7.4 SSE 35 44 19 24 1007.2 1007.0 0.0
23/03:30pm 26.1 20.4 12.9 44 7.7 SSE 35 44 19 24 1007.6 1007.4 0.0
23/03:00pm 27.2 21.6 12.0 38 8.8 SSE 33 43 18 23 1007.6 1007.4 0.0
23/02:30pm 26.4 21.6 12.8 43 8.0 SSE 30 39 16 21 1007.9 1007.7 0.0
23/02:00pm 26.2 21.7 11.5 40 8.4 SSE 26 35 14 19 1008.6 1008.4 0.0
23/01:30pm 26.1 22.5 12.9 44 7.7 S 24 35 13 19 1009.0 1008.8 0.0
23/01:00pm 26.4 22.8 13.2 44 7.8 SSE 24 30 13 16 1009.0 1008.8 0.0
23/12:30pm 27.8 24.7 12.2 38 9.1 ESE 20 30 11 16 1008.8 1008.6 0.0
23/12:00pm 27.0 24.4 11.9 39 8.7 ESE 17 28 9 15 1009.2 1009.0 0.0
23/11:30am 25.5 23.3 12.0 43 7.8 ESE 15 26 8 14 1009.7 1009.5 0.0
23/11:00am 24.8 22.3 12.4 46 7.1 E 17 24 9 13 1010.0 1009.8 0.0
23/10:30am 23.6 20.5 11.6 47 6.8 E 19 26 10 14 1010.6 1010.4 0.0
23/10:00am 22.6 19.6 12.0 51 6.0 ESE 19 24 10 13 1011.1 1010.9 0.0
23/09:30am 21.6 18.2 11.3 52 5.7 ESE 20 32 11 17 1011.2 1011.0 0.0
23/09:00am 20.7 17.7 12.1 58 4.8 SE 19 26 10 14 1011.2 1011.0 0.0
23/08:30am 19.6 16.6 12.6 64 3.9 SE 20 24 11 13 1011.1 1010.9 0.0
23/08:00am 17.9 16.1 13.4 75 2.5 SE 15 20 8 11 1010.9 1010.7 0.0
23/07:30am 15.3 14.4 13.7 90 0.9 SSE 11 13 6 7 1011.0 1010.8 0.0
23/07:00am 12.9 11.2 12.3 96 0.3 SE 13 13 7 7 1011.1 1010.9 0.0
23/06:30am 12.7 11.2 11.9 95 0.4 SE 11 11 6 6 1010.9 1010.7 0.0
23/06:00am 12.8 11.7 11.9 94 0.5 SE 9 11 5 6 1010.8 1010.6 0.0
23/05:30am 13.3 12.3 12.2 93 0.6 SE 9 11 5 6 1010.9 1010.7 0.0
23/05:00am 13.4 11.9 12.0 91 0.8 SE 11 13 6 7 1010.8 1010.6 0.0
23/04:30am 14.6 13.4 12.8 89 1.0 E 11 15 6 8 1010.7 1010.5 0.0
23/04:00am 15.3 13.4 13.1 87 1.2 ESE 15 19 8 10 1010.4 1010.2 0.0
23/03:30am 15.7 14.4 13.7 88 1.1 E 13 19 7 10 1010.4 1010.2 0.0
23/03:23am 16.1 14.6 14.1 88 1.1 E 15 20 8 11 1010.3 1010.1 0.0
23/03:03am 16.3 14.9 14.5 89 1.0 E 15 19 8 10 1010.3 1010.1 0.0
23/03:00am 16.3 15.2 14.3 88 1.1 E 13 19 7 10 1010.3 1010.1 0.0
23/02:30am 16.8 14.6 14.3 85 1.4 ESE 19 24 10 13 1010.3 1010.1 0.0
23/02:00am 17.0 14.5 14.1 83 1.7 ESE 20 24 11 13 1010.5 1010.3 0.0
23/01:30am 17.1 14.3 14.2 83 1.7 ESE 22 30 12 16 1010.8 1010.6 0.0
23/01:00am 17.2 13.9 14.1 82 1.8 ESE 24 30 13 16 1011.1 1010.9 0.0
23/12:30am 17.4 13.4 14.1 81 1.9 ESE 28 35 15 19 1011.4 1011.2 0.0
23/12:00am 17.5 13.8 14.0 80 2.0 SE 26 33 14 18 1011.7 1011.5 0.0
 
Date/Time
CDT
Temp
°C
App
Temp
°C
Dew
Point
Rel
Hum
%
Delta-T
°C
Wind Press
QNH
hPa
Press
MSL
hPa
Rain
since 9 am
mm
Dir
 
Spd
km/h
Gust
km/h
Spd
kts
Gust
kts
22/11:30pm 17.6 13.9 13.9 79 2.1 SE 26 33 14 18 1012.0 1011.8 0.0
22/11:00pm 17.7 14.0 13.8 78 2.2 SE 26 33 14 18 1012.0 1011.8 0.0
22/10:30pm 17.8 13.7 13.9 78 2.2 SE 28 35 15 19 1012.0 1011.8 0.0
22/10:00pm 17.9 13.8 13.8 77 2.3 SSE 28 35 15 19 1012.0 1011.8 0.0
22/09:30pm 18.0 14.0 14.1 78 2.2 SSE 28 33 15 18 1012.3 1012.1 0.0
22/09:00pm 18.2 14.9 13.9 76 2.5 SSE 24 32 13 17 1012.1 1011.9 0.0
22/08:30pm 18.6 14.5 13.9 74 2.7 SSE 28 39 15 21 1012.0 1011.8 0.0
22/08:00pm 19.3 14.8 13.7 70 3.2 SSE 30 37 16 20 1011.9 1011.7 0.0
22/07:30pm 19.9 15.1 12.9 64 4.0 SSE 30 43 16 23 1011.6 1011.4 0.0
22/07:00pm 20.4 15.1 13.1 63 4.2 S 33 44 18 24 1011.2 1011.0 0.0
22/06:30pm 21.2 15.9 14.1 64 4.1 S 35 44 19 24 1011.0 1010.8 0.0
22/06:00pm 22.0 17.0 14.1 61 4.6 S 33 43 18 23 1010.8 1010.6 0.0
22/05:30pm 22.8 17.1 13.0 54 5.7 S 35 44 19 24 1010.5 1010.3 0.0
22/05:00pm 23.5 17.8 11.9 48 6.6 S 33 41 18 22 1010.6 1010.4 0.0
22/04:30pm 23.7 17.8 12.4 49 6.5 S 35 44 19 24 1010.5 1010.3 0.0
22/04:00pm 24.2 18.6 12.2 47 6.9 S 33 43 18 23 1010.4 1010.2 0.0
22/03:30pm 24.7 19.2 12.0 45 7.3 S 32 41 17 22 1010.4 1010.2 0.0
22/03:00pm 25.1 19.6 12.0 44 7.5 S 32 43 17 23 1010.5 1010.3 0.0
22/02:30pm 25.5 19.6 10.5 39 8.4 S 32 41 17 22 1010.6 1010.4 0.0
22/02:00pm 25.4 19.9 10.4 39 8.4 S 30 43 16 23 1010.8 1010.6 0.0
22/01:30pm 25.6 20.3 9.8 37 8.7 S 28 37 15 20 1010.9 1010.7 0.0
22/01:00pm 26.1 20.5 8.6 33 9.5 SSE 28 39 15 21 1011.0 1010.8 0.0
22/12:30pm 26.0 20.3 8.5 33 9.5 SSE 28 39 15 21 1011.0 1010.8 0.0
22/12:00pm 25.5 19.9 8.9 35 9.0 SSE 28 44 15 24 1011.0 1010.8 0.0
22/11:30am 25.8 20.8 9.6 36 8.9 SE 26 39 14 21 1010.8 1010.6 0.0
22/11:00am 25.4 21.1 10.8 40 8.2 SE 24 37 13 20 1010.8 1010.6 0.0
22/10:30am 25.0 20.5 10.1 39 8.3 SE 24 32 13 17 1010.4 1010.2 0.0
22/10:00am 24.1 19.8 10.7 43 7.5 SE 24 32 13 17 1010.2 1010.0 0.0
22/09:30am 23.5 19.7 11.2 46 6.9 SE 22 32 12 17 1010.0 1009.8 0.0
22/09:00am 22.4 18.7 12.6 54 5.6 ESE 24 30 13 16 1009.6 1009.4 0.0
22/08:30am 21.2 18.2 13.6 62 4.4 ESE 22 28 12 15 1009.4 1009.2 0.0
22/08:00am 19.8 17.6 15.0 74 2.8 SE 20 26 11 14 1009.1 1008.9 0.0
22/07:30am 18.2 17.4 16.2 88 1.2 SE 15 19 8 10 1008.7 1008.5 0.0
22/07:00am 16.8 16.0 16.2 96 0.4 SE 15 17 8 9 1008.5 1008.3 0.0
22/06:30am 16.5 15.6 15.9 96 0.4 SSE 15 17 8 9 1008.3 1008.1 0.0
22/06:00am 16.8 15.9 15.8 94 0.6 SSE 15 17 8 9 1008.0 1007.8 0.0
22/05:30am 17.1 15.8 15.8 92 0.8 SSE 17 19 9 10 1007.7 1007.5 0.0
22/05:00am 17.3 15.9 15.6 90 1.0 S 17 24 9 13 1007.4 1007.2 0.0
22/04:30am 17.7 15.6 15.3 86 1.4 S 20 24 11 13 1007.4 1007.2 0.0
22/04:00am 17.9 15.5 15.3 85 1.5 S 22 30 12 16 1007.6 1007.4 0.0
22/03:30am 17.8 16.1 15.8 88 1.2 S 19 22 10 12 1007.8 1007.6 0.0
22/03:00am 18.1 16.5 16.1 88 1.2 SSW 19 24 10 13 1007.8 1007.6 0.0
22/02:30am 18.4 16.5 15.8 85 1.5 SSW 20 28 11 15 1007.7 1007.5 0.0
22/02:00am 18.9 16.3 15.8 82 1.8 SSW 24 33 13 18 1007.6 1007.4 0.0
22/01:30am 19.4 16.3 15.5 78 2.3 SSW 26 33 14 18 1007.3 1007.1 0.0
22/01:00am 20.0 16.5 15.4 75 2.7 SSW 28 35 15 19 1007.1 1006.9 0.0
22/12:30am 20.5 16.2 15.3 72 3.1 SSW 32 41 17 22 1006.8 1006.7 0.0
22/12:00am 21.5 16.4 14.9 66 3.9 SSW 35 44 19 24 1006.5 1006.4 0.0
 
Date/Time
CDT
Temp
°C
App
Temp
°C
Dew
Point
Rel
Hum
%
Delta-T
°C
Wind Press
QNH
hPa
Press
MSL
hPa
Rain
since 9 am
mm
Dir
 
Spd
km/h
Gust
km/h
Spd
kts
Gust
kts
21/11:30pm 22.4 17.7 14.8 62 4.5 SSW 33 44 18 24 1006.2 1006.1 0.0
21/11:00pm 23.2 18.6 14.7 58 5.0 SW 32 46 17 25 1005.9 1005.8 0.0
21/10:30pm 25.2 21.6 14.3 50 6.5 W 26 41 14 22 1005.3 1005.2 0.0
21/10:28pm 26.4 23.1 12.8 43 7.9 W 22 39 12 21 1005.3 1005.2 0.0
21/10:00pm 31.7 28.0 8.0 23 13.1 W 17 22 9 12 1004.6 1004.5 0.0
21/09:30pm 29.4 26.2 10.0 30 11.0 N 17 19 9 10 1003.9 1003.7 0.0
21/09:00pm 30.8 27.5 9.6 27 12.0 N 17 20 9 11 1003.9 1003.7 0.0
21/08:30pm 32.9 29.1 9.7 24 13.3 N 20 26 11 14 1003.8 1003.6 0.0
21/08:00pm 34.1 30.0 8.7 21 14.4 N 20 28 11 15 1003.8 1003.6 0.0
21/07:30pm 35.7 30.0 8.5 19 15.5 NNW 28 35 15 19 1003.7 1003.5 0.0
21/07:00pm 36.2 31.2 8.1 18 15.9 NNW 24 33 13 18 1003.9 1003.7 0.0
21/06:30pm 36.2 30.4 8.1 18 16.0 NNW 28 35 15 19 1003.9 1003.7 0.0
21/06:00pm 35.6 29.0 8.4 19 15.5 N 33 44 18 24 1004.1 1004.0 0.0
21/05:30pm 36.9 30.7 7.8 17 16.5 N 30 44 16 24 1004.3 1004.2 0.0
21/05:03pm 37.4 31.9 9.1 18 16.4 N 28 46 15 25 1004.5 1004.4 0.0
21/05:00pm 37.3 32.5 9.0 18 16.3 NNW 24 46 13 25 1004.5 1004.4 0.0
21/04:30pm 35.8 30.5 8.6 19 15.5 NNW 26 39 14 21 1005.1 1005.0 0.0
21/04:00pm 36.4 30.7 8.3 18 16.0 N 28 44 15 24 1005.6 1005.5 0.0

Other Formats:

Comma delimited format used in spreadsheet applications
http://www.bom.gov.au/fwo/IDS60801/IDS60801.94651.axf

JavaScript Object Notation format (JSON) in row-major order
http://www.bom.gov.au/fwo/IDS60801/IDS60801.94651.json